Time;durP1;ratioP1;P1;durP2;ratioP2;P2;SDS_P1;SDS_P2;PMS_P1;PMS_P2;Temp;Humidity;BMP_temperature;BMP_pressure;BME280_temperature;BME280_humidity;BME280_pressure;Samples;Min_cycle;Max_cycle;Signal;HPM_P1;HPM_P2
2022/07/26 00:01:10;;;;;;;;;2.00;2.00;;;;;21.01;61.90;100944.06;4967108;28;45304;-84
2022/07/26 00:03:35;;;;;;;;;1.00;1.00;;;;;20.95;62.39;100937.00;4951238;28;45398;-84
2022/07/26 00:06:02;;;;;;;;;1.00;1.00;;;;;20.96;61.85;100950.44;4965282;28;47074;-83
2022/07/26 00:08:34;;;;;;;;;2.33;2.33;;;;;20.95;61.30;100945.97;4965504;28;46058;-83
2022/07/26 00:10:59;;;;;;;;;1.00;1.00;;;;;20.97;61.63;100944.13;4950307;28;45360;-84
2022/07/26 00:13:26;;;;;;;;;2.00;2.00;;;;;20.97;61.63;100943.25;4952306;28;45337;-83
2022/07/26 00:15:52;;;;;;;;;1.00;1.00;;;;;20.97;61.03;100951.38;4966562;28;47146;-84
2022/07/26 00:18:17;;;;;;;;;3.00;3.00;;;;;20.93;61.45;100946.97;4950509;28;45182;-83
2022/07/26 00:20:43;;;;;;;;;2.00;2.00;;;;;20.88;61.70;100941.66;4953466;28;45428;-82
2022/07/26 00:23:09;;;;;;;;;1.00;1.00;;;;;20.91;61.93;100947.00;4952095;28;45499;-83
2022/07/26 00:25:35;;;;;;;;;2.00;2.00;;;;;20.87;62.23;100947.13;4952197;28;45425;-83
2022/07/26 00:28:00;;;;;;;;;2.00;2.00;;;;;20.88;61.39;100943.47;4950349;28;45572;-84
2022/07/26 00:33:49;;;;;;;;;1.00;1.00;;;;;20.80;61.73;100942.78;4953808;28;45485;-84
2022/07/26 00:36:15;;;;;;;;;2.33;1.00;;;;;20.80;61.31;100949.06;4951654;28;47740;-84
2022/07/26 00:38:40;;;;;;;;;3.33;3.33;;;;;20.74;62.07;100942.03;4951546;28;45554;-84
2022/07/26 00:41:06;;;;;;;;;1.00;1.00;;;;;20.77;62.47;100947.34;4952515;28;44742;-84
2022/07/26 00:43:32;;;;;;;;;1.00;1.00;;;;;20.83;61.87;100953.53;4962489;28;45454;-83
2022/07/26 00:45:58;;;;;;;;;1.67;1.00;;;;;20.80;61.77;100962.59;4969516;28;47002;-83
2022/07/26 00:48:23;;;;;;;;;2.00;2.00;;;;;20.80;61.90;100954.47;4968295;28;45464;-84
2022/07/26 00:50:51;;;;;;;;;1.00;1.00;;;;;20.79;61.44;100944.59;4968281;28;45392;-83
2022/07/26 00:53:22;;;;;;;;;2.00;2.00;;;;;20.72;61.97;100948.38;4971061;28;45894;-83
2022/07/26 00:55:49;;;;;;;;;1.00;1.00;;;;;20.66;61.87;100951.22;4970353;28;45318;-83
2022/07/26 00:58:15;;;;;;;;;1.00;1.00;;;;;20.56;61.69;100940.63;4971742;28;45434;-83
2022/07/26 01:00:41;;;;;;;;;2.00;1.00;;;;;20.48;63.31;100939.91;4971275;28;45430;-84
2022/07/26 01:03:06;;;;;;;;;2.00;2.00;;;;;20.42;62.49;100940.06;4971631;28;45480;-83
2022/07/26 01:05:32;;;;;;;;;0.00;0.00;;;;;20.39;63.75;100937.41;4971703;28;45786;-83
2022/07/26 01:07:58;;;;;;;;;1.67;1.00;;;;;20.42;63.20;100945.47;4971274;28;45509;-83
2022/07/26 01:10:24;;;;;;;;;1.00;1.00;;;;;20.28;64.98;100932.28;4971184;28;44813;-84
2022/07/26 01:12:49;;;;;;;;;1.00;1.00;;;;;20.39;63.15;100945.53;4984568;28;45447;-83
2022/07/26 01:15:16;;;;;;;;;2.00;1.67;;;;;20.37;64.12;100939.28;4971210;28;45065;-84
2022/07/26 01:17:42;;;;;;;;;2.67;2.33;;;;;20.34;64.22;100934.84;4969644;28;45268;-84
2022/07/26 01:20:10;;;;;;;;;1.00;1.00;;;;;20.39;63.85;100934.72;4971319;28;45397;-83
2022/07/26 01:22:37;;;;;;;;;0.67;0.67;;;;;20.38;64.01;100933.84;4970312;28;45621;-84
2022/07/26 01:25:03;;;;;;;;;0.67;0.67;;;;;20.31;64.64;100931.31;4969816;28;45345;-84
2022/07/26 01:27:29;;;;;;;;;0.67;0.67;;;;;20.29;64.37;100927.75;4970675;28;45548;-83
2022/07/26 01:29:54;;;;;;;;;2.00;0.67;;;;;20.26;63.83;100933.22;4970568;28;45472;-84
2022/07/26 01:32:23;;;;;;;;;1.00;1.00;;;;;20.27;64.31;100943.09;4969203;28;45479;-84
2022/07/26 01:38:10;;;;;;;;;2.67;1.33;;;;;20.22;64.75;100928.81;4969894;28;44782;-83
2022/07/26 01:40:35;;;;;;;;;1.00;1.00;;;;;20.25;64.44;100937.72;4969773;28;45447;-83
2022/07/26 01:43:01;;;;;;;;;2.00;1.00;;;;;20.19;65.13;100924.38;4968131;28;45514;-84
2022/07/26 01:45:34;;;;;;;;;1.33;1.33;;;;;20.26;65.07;100941.31;4969717;28;46034;-85
2022/07/26 01:48:01;;;;;;;;;2.00;1.00;;;;;20.23;64.52;100934.19;4969803;28;45331;-84
2022/07/26 01:50:29;;;;;;;;;2.00;2.00;;;;;20.19;64.43;100938.75;4972036;28;45370;-84
2022/07/26 01:52:54;;;;;;;;;2.33;2.00;;;;;20.18;64.77;100937.00;4970056;28;45332;-82
2022/07/26 01:55:20;;;;;;;;;1.00;1.00;;;;;20.17;65.02;100937.91;4968502;28;47625;-82
2022/07/26 01:57:45;;;;;;;;;0.33;0.33;;;;;20.18;65.20;100934.28;4969038;28;45333;-83
2022/07/26 02:00:48;;;;;;;;;6.00;3.00;;;;;20.18;64.86;100931.59;4970330;28;45507;-84
2022/07/26 02:03:14;;;;;;;;;0.33;0.33;;;;;20.09;65.37;100921.00;4968360;28;45781;-82
2022/07/26 02:05:39;;;;;;;;;1.00;1.00;;;;;20.10;66.49;100932.69;4967634;28;46702;-83
2022/07/26 02:08:05;;;;;;;;;1.00;1.00;;;;;20.03;66.30;100928.34;4966308;28;45296;-83
2022/07/26 02:13:15;;;;;;;;;1.00;1.00;;;;;20.01;66.14;100932.88;4967670;28;45335;-83
2022/07/26 02:15:41;;;;;;;;;2.00;2.00;;;;;19.97;65.84;100937.47;4968812;28;45374;-83
2022/07/26 02:18:09;;;;;;;;;0.00;0.00;;;;;19.99;66.66;100943.72;4969573;28;45324;-84
2022/07/26 02:20:38;;;;;;;;;2.00;1.00;;;;;19.94;67.42;100938.44;4971200;28;44798;-83
2022/07/26 02:23:06;;;;;;;;;2.00;2.00;;;;;19.94;66.47;100937.53;4969957;28;45341;-83
2022/07/26 02:25:31;;;;;;;;;0.00;0.00;;;;;19.92;66.82;100928.59;4969302;28;46918;-84
2022/07/26 02:27:57;;;;;;;;;1.00;1.00;;;;;19.86;67.09;100939.53;4971589;28;45439;-83
2022/07/26 02:30:23;;;;;;;;;1.00;1.00;;;;;19.85;67.29;100937.72;4968769;28;45440;-83
2022/07/26 02:32:49;;;;;;;;;1.00;1.00;;;;;19.83;67.18;100939.56;4969284;28;44918;-84
2022/07/26 02:35:14;;;;;;;;;1.00;1.00;;;;;19.78;67.78;100942.38;4964071;28;47091;-84
2022/07/26 02:37:41;;;;;;;;;1.00;1.00;;;;;19.76;67.99;100937.00;4970654;28;45449;-83
2022/07/26 02:40:09;;;;;;;;;2.67;1.33;;;;;19.80;68.47;100950.44;4984847;28;45764;-84
2022/07/26 02:42:34;;;;;;;;;1.33;1.00;;;;;19.76;68.94;100939.69;4985462;28;44787;-84
2022/07/26 02:45:00;;;;;;;;;2.00;2.00;;;;;19.77;68.52;100945.97;4969032;28;46318;-84
2022/07/26 02:47:26;;;;;;;;;1.00;1.00;;;;;19.72;68.84;100942.50;4969204;28;45413;-84
2022/07/26 02:49:52;;;;;;;;;1.00;1.00;;;;;19.71;69.61;100949.72;4968337;28;44876;-84
2022/07/26 02:52:17;;;;;;;;;2.67;1.00;;;;;19.65;70.03;100947.06;4984937;28;45563;-83
2022/07/26 02:54:43;;;;;;;;;2.00;2.00;;;;;19.59;69.94;100947.19;4969921;28;45389;-82
2022/07/26 02:57:08;;;;;;;;;0.67;0.67;;;;;19.62;70.02;100952.56;4967265;28;45569;-83
2022/07/26 02:59:37;;;;;;;;;3.00;2.00;;;;;19.63;70.52;100953.44;4966687;28;45486;-83
2022/07/26 03:02:02;;;;;;;;;2.33;2.00;;;;;19.58;71.78;100943.63;4967199;28;45235;-84
2022/07/26 03:04:29;;;;;;;;;1.67;1.67;;;;;19.56;71.67;100947.28;4966975;28;46800;-84
2022/07/26 03:06:54;;;;;;;;;2.00;2.00;;;;;19.51;71.39;100943.75;4951249;28;45449;-84
2022/07/26 03:09:20;;;;;;;;;1.67;1.67;;;;;19.52;72.13;100945.56;4965033;28;44798;-84
2022/07/26 03:11:45;;;;;;;;;2.33;1.67;;;;;19.52;72.07;100949.13;4982914;28;45511;-84
2022/07/26 03:14:11;;;;;;;;;2.33;1.00;;;;;19.53;71.80;100948.25;4967235;28;47220;-84
2022/07/26 03:16:37;;;;;;;;;1.33;1.33;;;;;19.61;72.21;100956.16;4968684;28;45506;-84
2022/07/26 03:19:03;;;;;;;;;0.67;0.67;;;;;19.64;72.24;100958.81;4970367;28;45485;-84
2022/07/26 03:21:28;;;;;;;;;0.67;0.67;;;;;19.65;72.11;100949.78;4975154;28;45826;-83
2022/07/26 03:23:54;;;;;;;;;1.00;1.00;;;;;19.72;71.62;100954.19;4973443;28;46638;-83
2022/07/26 03:26:20;;;;;;;;;1.00;1.00;;;;;19.72;72.22;100954.19;4974589;28;45517;-83
2022/07/26 03:28:46;;;;;;;;;0.67;0.67;;;;;19.72;72.84;100953.28;4975764;28;45434;-84
2022/07/26 03:31:12;;;;;;;;;3.33;2.00;;;;;19.75;72.46;100953.22;4973176;28;44881;-83
2022/07/26 03:33:38;;;;;;;;;2.33;2.33;;;;;19.72;73.94;100951.47;4976319;28;46075;-83
2022/07/26 03:36:04;;;;;;;;;1.00;1.00;;;;;19.76;72.86;100960.41;4977559;28;44764;-84
2022/07/26 03:38:30;;;;;;;;;1.00;1.00;;;;;19.73;73.24;100958.66;4976389;28;45439;-84
2022/07/26 03:40:56;;;;;;;;;1.67;1.67;;;;;19.70;72.78;100945.19;4976770;28;45451;-84
2022/07/26 03:43:21;;;;;;;;;1.00;1.00;;;;;19.77;72.66;100956.78;4975644;28;45736;-85
2022/07/26 03:45:47;;;;;;;;;1.33;1.00;;;;;19.81;72.82;100957.59;4973269;28;45411;-84
2022/07/26 03:48:12;;;;;;;;;1.00;1.00;;;;;19.75;73.11;100951.44;4974910;28;45473;-83
2022/07/26 03:50:38;;;;;;;;;1.67;0.67;;;;;19.77;73.52;100963.09;4974637;28;45436;-85
2022/07/26 03:53:03;;;;;;;;;1.00;1.00;;;;;19.80;73.61;100966.63;4975985;28;45585;-84
2022/07/26 03:58:13;;;;;;;;;1.00;1.00;;;;;19.74;74.16;100965.81;4976289;28;45419;-83
2022/07/26 04:00:38;;;;;;;;;2.00;1.33;;;;;19.78;74.96;100969.34;4976155;28;45610;-83
2022/07/26 04:03:05;;;;;;;;;3.00;2.00;;;;;19.75;75.30;100959.53;4976484;28;45256;-84
2022/07/26 04:05:31;;;;;;;;;1.00;1.00;;;;;19.74;74.59;100964.94;4974100;28;45530;-84
2022/07/26 04:07:56;;;;;;;;;2.33;2.00;;;;;19.77;74.65;100963.09;4972038;28;45597;-84
2022/07/26 04:10:22;;;;;;;;;1.33;1.00;;;;;19.84;74.58;100966.53;4975593;28;45372;-84
2022/07/26 04:12:48;;;;;;;;;3.67;2.00;;;;;19.87;75.47;100968.28;4973840;28;47254;-84
2022/07/26 04:15:15;;;;;;;;;1.00;1.00;;;;;19.88;74.93;100979.03;4973145;28;44692;-86
2022/07/26 04:17:41;;;;;;;;;2.67;2.00;;;;;19.84;74.94;100966.53;4973100;28;45490;-84
2022/07/26 04:20:09;;;;;;;;;0.67;0.67;;;;;19.93;74.96;100973.53;4974197;28;44869;-83
2022/07/26 04:22:36;;;;;;;;;1.33;1.33;;;;;19.92;75.16;100972.66;4973611;28;47059;-84
2022/07/26 04:25:10;;;;;;;;;1.33;1.00;;;;;19.93;76.47;100969.03;4973842;28;45343;-84
2022/07/26 04:27:39;;;;;;;;;1.00;1.00;;;;;19.90;76.09;100969.09;4974300;28;45513;-84
2022/07/26 04:30:06;;;;;;;;;1.33;1.33;;;;;19.89;76.27;100959.22;4972002;28;45466;-84
2022/07/26 04:32:31;;;;;;;;;2.00;2.00;;;;;19.88;76.18;100968.25;4970961;28;45719;-84
2022/07/26 04:34:57;;;;;;;;;2.67;2.67;;;;;19.95;76.54;100971.69;4969357;28;45467;-84
2022/07/26 04:37:22;;;;;;;;;2.00;2.00;;;;;19.98;75.49;100972.53;4969119;28;45894;-83
2022/07/26 04:39:48;;;;;;;;;3.00;3.00;;;;;19.98;75.86;100971.66;4961725;28;45432;-84
2022/07/26 04:42:13;;;;;;;;;3.67;2.33;;;;;20.04;76.03;100976.91;4952399;28;45375;-84
2022/07/26 04:44:39;;;;;;;;;1.00;1.00;;;;;20.06;75.88;100979.59;4950976;28;45471;-85
2022/07/26 04:47:04;;;;;;;;;2.00;2.00;;;;;20.08;75.83;100983.16;4950792;28;45510;-83
2022/07/26 04:49:30;;;;;;;;;2.00;2.00;;;;;20.05;75.69;100962.47;4952128;28;45447;-83
2022/07/26 04:51:58;;;;;;;;;1.33;1.33;;;;;20.08;75.45;100978.63;4952596;28;45574;-84
2022/07/26 04:54:23;;;;;;;;;2.67;2.67;;;;;20.05;75.86;100973.28;4948759;28;45380;-84
2022/07/26 04:56:49;;;;;;;;;1.33;1.33;;;;;20.09;76.85;100969.59;4951955;28;44695;-83
2022/07/26 04:59:16;;;;;;;;;3.67;2.33;;;;;20.17;75.84;100994.63;4953795;28;44782;-83
2022/07/26 05:01:42;;;;;;;;;4.00;2.00;;;;;20.18;78.52;100991.00;4951082;28;47778;-84
2022/07/26 05:04:08;;;;;;;;;3.00;2.33;;;;;20.17;76.88;100997.31;4935502;28;45547;-83
2022/07/26 05:06:33;;;;;;;;;2.33;2.33;;;;;20.15;76.49;100996.47;4953500;28;45510;-84
2022/07/26 05:09:00;;;;;;;;;3.33;2.00;;;;;20.23;76.51;101008.91;4951803;28;45508;-84
2022/07/26 05:11:32;;;;;;;;;1.33;1.33;;;;;20.19;76.58;100998.16;4952461;28;45115;-83
2022/07/26 05:13:58;;;;;;;;;3.00;3.00;;;;;20.25;75.86;100998.97;4951789;28;44926;-83
2022/07/26 05:16:23;;;;;;;;;2.33;2.00;;;;;20.29;76.01;101001.56;4952523;28;44921;-83
2022/07/26 05:18:49;;;;;;;;;4.33;3.00;;;;;20.33;76.13;101002.41;4951217;28;45480;-84
2022/07/26 05:21:20;;;;;;;;;4.00;3.00;;;;;20.30;76.21;101003.34;4954899;28;45591;-84
2022/07/26 05:23:48;;;;;;;;;3.00;3.00;;;;;20.32;76.66;101015.00;4985676;28;45444;-83
2022/07/26 05:26:14;;;;;;;;;2.00;2.00;;;;;20.35;75.88;101011.34;4969722;28;45513;-83
2022/07/26 05:28:40;;;;;;;;;2.67;2.67;;;;;20.32;75.57;101001.50;4970381;28;45367;-85
2022/07/26 05:31:06;;;;;;;;;3.00;3.00;;;;;20.43;75.75;101017.47;4969277;28;47687;-84
2022/07/26 05:36:53;;;;;;;;;3.00;3.00;;;;;20.49;75.55;101006.53;4972037;28;45527;-84
2022/07/26 05:39:19;;;;;;;;;3.00;2.00;;;;;20.55;75.19;101014.50;4970571;28;45320;-84
2022/07/26 05:41:44;;;;;;;;;2.33;2.33;;;;;20.53;75.85;101018.16;4967672;28;46745;-83
2022/07/26 05:44:10;;;;;;;;;3.00;3.00;;;;;20.54;75.24;101020.84;4985147;28;44821;-84
2022/07/26 05:46:38;;;;;;;;;4.67;4.00;;;;;20.55;75.15;101010.91;4971238;28;45518;-84
2022/07/26 05:49:04;;;;;;;;;4.67;1.00;;;;;20.56;75.79;101009.97;4971629;28;45360;-83
2022/07/26 05:51:31;;;;;;;;;2.33;2.33;;;;;20.59;75.82;101018.03;4968682;28;47084;-85
2022/07/26 05:53:59;;;;;;;;;2.67;2.67;;;;;20.56;74.96;101016.28;4971253;28;45380;-84
2022/07/26 05:56:25;;;;;;;;;2.00;2.00;;;;;20.53;75.33;101015.44;4988113;28;45509;-84
2022/07/26 05:58:51;;;;;;;;;5.67;2.33;;;;;20.62;75.29;101026.06;4972302;28;45450;-84
2022/07/26 06:01:16;;;;;;;;;3.67;3.67;;;;;20.63;74.96;101010.75;4969882;28;46407;-84
2022/07/26 06:03:43;;;;;;;;;4.00;2.67;;;;;20.68;74.85;101025.03;4971639;28;45835;-84
2022/07/26 06:06:11;;;;;;;;;2.00;2.00;;;;;20.73;75.01;101025.84;4973471;28;45398;-86
2022/07/26 06:08:40;;;;;;;;;4.33;4.33;;;;;20.71;74.73;101019.59;4972480;28;45467;-86
2022/07/26 06:11:05;;;;;;;;;3.00;3.00;;;;;20.62;74.33;101000.88;4973395;28;45443;-86
2022/07/26 06:13:31;;;;;;;;;5.00;5.00;;;;;20.75;74.49;101018.59;4989065;28;45534;-86
2022/07/26 06:15:57;;;;;;;;;2.00;2.00;;;;;20.70;74.80;101021.41;4990909;28;44867;-85
2022/07/26 06:18:23;;;;;;;;;2.00;2.00;;;;;20.78;74.27;101023.91;4974328;28;45496;-86
2022/07/26 06:20:52;;;;;;;;;3.00;1.67;;;;;20.78;74.39;101029.31;4971405;28;46773;-86
2022/07/26 06:23:18;;;;;;;;;4.00;4.00;;;;;20.63;74.66;101002.66;4974311;28;45615;-85
2022/07/26 06:25:46;;;;;;;;;4.00;2.00;;;;;20.77;74.15;101022.13;4973084;28;45488;-85
2022/07/26 06:28:17;;;;;;;;;2.33;1.00;;;;;20.65;74.28;101003.50;4988323;28;44963;-86
2022/07/26 06:30:44;;;;;;;;;2.00;2.00;;;;;20.81;74.92;101031.94;4973131;28;45754;-85
2022/07/26 06:33:10;;;;;;;;;2.33;2.33;;;;;20.93;75.02;101055.09;4988678;28;45537;-85
2022/07/26 06:35:38;;;;;;;;;3.33;3.33;;;;;20.83;74.87;101031.91;4988186;28;45479;-86
2022/07/26 06:38:06;;;;;;;;;3.00;3.00;;;;;20.84;74.09;101020.16;4961911;28;44790;-86
2022/07/26 06:43:58;;;;;;;;;3.00;3.00;;;;;20.98;73.87;101043.22;4920654;28;44924;-87
2022/07/26 06:46:23;;;;;;;;;3.00;3.00;;;;;20.98;73.44;101048.63;4972416;28;45497;-85
2022/07/26 06:52:39;;;;;;;;;2.00;2.00;;;;;20.84;73.61;101012.94;4961911;28;45895;-86
2022/07/26 06:55:08;;;;;;;;;2.33;2.33;;;;;21.11;73.02;101053.78;4970570;28;45428;-86
2022/07/26 06:57:35;;;;;;;;;5.00;5.00;;;;;21.00;73.24;101023.41;4972923;28;45374;-86
2022/07/26 07:00:10;;;;;;;;;6.00;4.00;;;;;21.18;73.56;101049.97;4989183;28;45520;-85
2022/07/26 07:02:36;;;;;;;;;4.00;3.00;;;;;21.21;73.45;101054.41;4957218;28;47533;-85
2022/07/26 07:05:03;;;;;;;;;2.67;2.67;;;;;21.16;73.48;101036.47;4970976;28;45941;-86
2022/07/26 07:07:29;;;;;;;;;2.33;2.00;;;;;21.29;72.75;101058.72;4988038;28;45455;-87
2022/07/26 07:09:54;;;;;;;;;5.00;4.00;;;;;21.37;73.08;101045.00;4972714;28;45411;-85
2022/07/26 07:12:20;;;;;;;;;4.00;4.00;;;;;21.44;72.39;101049.34;4973085;28;47813;-86
2022/07/26 07:14:46;;;;;;;;;2.00;2.00;;;;;21.45;71.91;101042.09;4971754;28;45338;-86
2022/07/26 07:17:11;;;;;;;;;1.67;1.67;;;;;21.53;71.84;101040.09;4973073;28;45472;-85
2022/07/26 07:19:40;;;;;;;;;3.00;2.00;;;;;21.66;70.87;101060.50;4955688;28;45427;-86
2022/07/26 07:22:23;;;;;;;;;4.33;4.33;;;;;21.72;70.71;101062.16;4968564;28;47103;-88
2022/07/26 07:24:51;;;;;;;;;4.67;4.67;;;;;21.48;70.46;101036.63;4967267;28;45588;-86
2022/07/26 07:27:18;;;;;;;;;6.00;4.00;;;;;21.40;70.62;101030.50;4972871;28;45267;-84
2022/07/26 07:29:44;;;;;;;;;6.33;5.00;;;;;21.52;71.46;101049.16;4969016;28;45799;-84
2022/07/26 07:32:11;;;;;;;;;3.33;3.33;;;;;21.52;71.03;101058.16;4970444;28;45467;-85
2022/07/26 07:34:39;;;;;;;;;5.00;4.33;;;;;21.29;70.75;101020.84;4970773;28;45442;-84
2022/07/26 07:37:14;;;;;;;;;4.00;4.00;;;;;21.47;71.32;101067.31;4967023;28;45502;-84
2022/07/26 07:39:40;;;;;;;;;6.67;5.00;;;;;21.48;71.16;101050.16;4969290;28;44951;-84
2022/07/26 07:42:05;;;;;;;;;3.00;3.00;;;;;21.62;70.54;101072.34;4969539;28;47091;-86
2022/07/26 07:44:31;;;;;;;;;6.33;4.00;;;;;21.63;70.35;101060.56;4970255;28;45391;-85
2022/07/26 07:50:20;;;;;;;;;4.67;4.00;;;;;21.86;69.97;101054.53;4966079;28;45461;-84
2022/07/26 07:52:52;;;;;;;;;4.00;3.00;;;;;21.84;68.87;101039.28;4952923;28;45050;-85
2022/07/26 07:55:21;;;;;;;;;5.33;5.00;;;;;21.92;68.17;101064.31;4965168;28;45615;-82
2022/07/26 07:57:54;;;;;;;;;3.00;3.00;;;;;21.86;68.67;101059.06;4962958;28;45328;-85
2022/07/26 08:00:19;;;;;;;;;2.00;2.00;;;;;22.01;68.60;101064.03;4970945;28;44962;-83
2022/07/26 08:02:48;;;;;;;;;4.00;4.00;;;;;22.00;67.83;101056.00;4964779;28;46620;-84
2022/07/26 08:05:14;;;;;;;;;3.00;3.00;;;;;21.89;68.50;101058.97;4972450;28;44727;-86
2022/07/26 08:07:40;;;;;;;;;6.67;3.00;;;;;21.95;68.14;101069.63;4975482;28;45396;-83
2022/07/26 08:10:06;;;;;;;;;4.00;4.00;;;;;22.03;68.06;101067.59;4957911;28;45627;-83
2022/07/26 08:12:31;;;;;;;;;1.67;1.67;;;;;22.10;67.69;101061.09;4975143;28;46974;-84
2022/07/26 08:14:57;;;;;;;;;5.33;3.00;;;;;22.30;67.35;101071.38;4975467;28;45453;-85
2022/07/26 08:17:30;;;;;;;;;5.33;3.00;;;;;22.38;66.41;101068.44;4978481;28;45497;-85
2022/07/26 08:20:06;;;;;;;;;6.00;5.00;;;;;22.42;65.82;101067.44;4976307;28;45356;-85
2022/07/26 08:22:31;;;;;;;;;2.67;2.00;;;;;22.41;65.86;101071.06;4977503;28;45480;-85
2022/07/26 08:25:50;;;;;;;;;3.00;3.00;;;;;22.57;65.64;101076.91;4978154;28;44864;-85
2022/07/26 08:28:24;;;;;;;;;6.00;3.33;;;;;22.65;65.01;101072.13;4976318;28;45357;-84
2022/07/26 08:30:52;;;;;;;;;5.00;4.00;;;;;22.73;64.49;101069.19;4975641;28;45432;-85
2022/07/26 08:33:25;;;;;;;;;4.67;3.00;;;;;22.71;64.01;101076.47;4970255;28;45423;-84
2022/07/26 08:35:51;;;;;;;;;4.00;3.00;;;;;22.47;64.31;101083.53;4965084;28;45546;-83
2022/07/26 08:38:28;;;;;;;;;5.00;3.67;;;;;22.16;65.00;101069.03;4973332;28;45713;-84
2022/07/26 08:44:10;;;;;;;;;1.33;1.33;;;;;22.11;65.91;101070.97;4952499;28;45602;-85
2022/07/26 08:46:47;;;;;;;;;4.67;3.67;;;;;21.89;66.51;101053.56;4954702;28;44800;-84
2022/07/26 08:49:16;;;;;;;;;3.00;3.00;;;;;21.95;65.99;101075.06;4966016;28;44880;-83
2022/07/26 08:51:49;;;;;;;;;4.33;3.00;;;;;21.91;66.51;101090.47;4973686;28;45509;-84
2022/07/26 08:54:50;;;;;;;;;3.33;3.33;;;;;22.03;67.02;101091.09;4971575;28;45323;-85
2022/07/26 08:57:17;;;;;;;;;4.00;4.00;;;;;22.15;66.63;101080.78;4956190;28;45355;-85
2022/07/26 09:00:44;;;;;;;;;6.00;4.00;;;;;22.35;65.77;101090.19;4973953;28;44820;-85
2022/07/26 09:03:25;;;;;;;;;3.67;3.67;;;;;22.32;64.86;101064.09;4927898;28;45404;-84
2022/07/26 09:09:19;;;;;;;;;2.67;2.67;;;;;22.65;64.71;101096.53;4952283;28;45653;-83
2022/07/26 09:11:45;;;;;;;;;2.00;2.00;;;;;22.63;64.09;101092.09;4973076;28;45423;-83
2022/07/26 09:14:16;;;;;;;;;4.00;4.00;;;;;22.66;64.20;101095.63;4962371;28;45476;-84
2022/07/26 09:16:56;;;;;;;;;5.33;4.00;;;;;22.71;63.16;101087.34;4968854;28;45482;-84
2022/07/26 09:19:23;;;;;;;;;7.67;7.67;;;;;22.93;63.13;101103.81;4936269;28;46048;-84
2022/07/26 09:21:49;;;;;;;;;5.00;4.33;;;;;22.97;62.16;101106.38;4955463;28;44941;-84
2022/07/26 09:24:39;;;;;;;;;4.00;4.00;;;;;23.01;61.89;101106.31;4973955;28;44741;-84
2022/07/26 09:27:08;;;;;;;;;4.67;4.33;;;;;22.92;61.08;101108.34;4957368;28;47336;-84
2022/07/26 09:34:01;;;;;;;;;;;;;;;;;;;;;
2022/07/26 09:36:28;;;;;;;;;6.00;6.00;;;;;22.63;61.86;101106.53;4915025;28;65531;-84
2022/07/26 09:38:57;;;;;;;;;5.33;5.00;;;;;22.67;60.89;101093.78;4914090;28;47644;-84
2022/07/26 09:41:33;;;;;;;;;5.33;4.33;;;;;22.81;60.72;101107.81;4912432;28;45480;-84
2022/07/26 09:44:21;;;;;;;;;12.67;12.67;;;;;22.91;61.08;101090.31;4913737;29;45691;-84
2022/07/26 09:46:58;;;;;;;;;9.00;9.00;;;;;23.39;60.78;101113.22;4914457;29;44829;-88
2022/07/26 10:00:14;;;;;;;;;5.00;5.00;;;;;24.10;53.92;101124.38;4857527;29;45601;-84
2022/07/26 10:02:48;;;;;;;;;3.00;3.00;;;;;23.94;53.42;101091.44;4856119;29;46832;-83
2022/07/26 10:05:15;;;;;;;;;3.67;3.67;;;;;24.36;53.82;101112.56;4855335;29;45525;-84
2022/07/26 10:07:42;;;;;;;;;4.67;4.67;;;;;24.59;51.30;101124.41;4861256;29;45437;-85
2022/07/26 10:10:16;;;;;;;;;2.00;2.00;;;;;24.48;50.75;101117.53;4859053;29;45934;-84
2022/07/26 10:12:45;;;;;;;;;2.67;2.67;;;;;24.50;51.49;101115.69;4874866;29;45111;-84
2022/07/26 10:15:43;;;;;;;;;4.00;3.00;;;;;24.49;50.72;101119.28;4875085;29;45446;-84
2022/07/26 10:18:42;;;;;;;;;7.00;7.00;;;;;24.60;51.61;101123.47;4878963;29;44847;-85
2022/07/26 10:21:30;;;;;;;;;7.33;6.00;;;;;24.66;49.89;101115.06;4844142;29;44933;-85
2022/07/26 10:24:03;;;;;;;;;5.33;5.33;;;;;24.68;47.55;101107.72;4841094;29;48442;-86
2022/07/26 10:26:31;;;;;;;;;4.33;4.33;;;;;24.86;48.68;101112.44;4835403;29;45358;-86
2022/07/26 10:29:23;;;;;;;;;3.00;3.00;;;;;25.11;48.69;101114.22;4804505;29;44993;-85
2022/07/26 10:32:07;;;;;;;;;2.00;2.00;;;;;25.32;48.28;101116.06;4804860;29;45320;-85
2022/07/26 10:34:55;;;;;;;;;4.00;4.00;;;;;25.39;47.93;101114.00;4879843;29;47669;-86
2022/07/26 10:37:32;;;;;;;;;2.00;2.00;;;;;25.52;47.05;101111.63;4885395;29;45439;-85
2022/07/26 10:40:16;;;;;;;;;6.67;6.67;;;;;25.72;46.46;101108.94;4913495;29;45527;-84
2022/07/26 10:48:14;;;;;;;;;4.00;3.67;;;;;25.88;44.53;101121.91;4799105;23;45522;-84
2022/07/26 10:50:42;;;;;;;;;3.67;3.67;;;;;25.87;44.41;101092.88;4965999;28;45408;-85
2022/07/26 10:53:23;;;;;;;;;2.00;2.00;;;;;26.17;42.96;101111.56;4970413;28;45243;-86
2022/07/26 10:56:00;;;;;;;;;2.00;2.00;;;;;26.19;42.52;101121.44;4969960;28;47075;-86
2022/07/26 11:05:26;;;;;;;;;1.00;1.00;;;;;26.48;41.49;101116.50;4937855;28;45433;-85
2022/07/26 11:08:12;;;;;;;;;1.00;1.00;;;;;26.38;41.42;101086.06;4933250;28;45414;-87
2022/07/26 11:10:40;;;;;;;;;1.67;1.67;;;;;26.35;41.82;101087.06;4931041;28;45378;-85
2022/07/26 11:13:44;;;;;;;;;2.33;1.67;;;;;26.14;41.63;101078.03;4953361;28;44756;-87
2022/07/26 11:19:54;;;;;;;;;2.67;2.67;;;;;25.51;42.47;101093.50;4916034;29;45577;-83
2022/07/26 11:22:23;;;;;;;;;2.67;2.67;;;;;25.42;43.53;101110.25;4913720;29;45492;-83
2022/07/26 11:24:59;;;;;;;;;3.67;3.67;;;;;25.03;43.72;101090.03;4916026;28;44891;-83
2022/07/26 11:27:26;;;;;;;;;1.33;1.33;;;;;24.79;43.40;101094.63;4918323;28;45328;-84
2022/07/26 11:30:24;;;;;;;;;5.00;2.00;;;;;24.55;43.91;101120.94;4933835;28;45330;-85
2022/07/26 11:32:57;;;;;;;;;3.00;2.00;;;;;24.26;45.35;101124.69;4929651;28;45492;-85
2022/07/26 11:35:30;;;;;;;;;3.00;3.00;;;;;24.05;45.83;101121.81;4903460;28;45625;-83
2022/07/26 11:37:57;;;;;;;;;1.00;1.00;;;;;23.86;46.16;101112.56;4904613;28;45522;-82
2022/07/26 11:41:06;;;;;;;;;;;;;;;;;;;;;
2022/07/26 11:44:17;;;;;;;;;2.00;2.00;;;;;23.60;46.52;101089.88;4924743;28;72294;-85
2022/07/26 11:47:18;;;;;;;;;2.33;2.00;;;;;23.51;46.46;101080.22;4893866;29;45467;-84
2022/07/26 11:49:45;;;;;;;;;2.00;2.00;;;;;23.44;46.55;101080.50;4860435;29;45268;-82
2022/07/26 11:52:16;;;;;;;;;1.00;1.00;;;;;23.45;46.51;101076.81;4871141;29;45715;-84
2022/07/26 11:58:31;;;;;;;;;2.67;2.33;;;;;23.67;46.34;101079.69;4893213;29;45371;-83
2022/07/26 12:00:58;;;;;;;;;3.00;3.00;;;;;23.72;46.31;101097.59;4856788;29;45448;-83
2022/07/26 12:03:56;;;;;;;;;3.00;2.00;;;;;24.01;47.28;101113.84;4857966;29;45694;-84
2022/07/26 12:06:25;;;;;;;;;3.00;3.00;;;;;24.09;47.00;101093.59;4814427;29;44844;-83
2022/07/26 12:12:41;;;;;;;;;3.00;3.00;;;;;24.33;46.29;101109.94;4790540;29;45325;-83
2022/07/26 12:15:47;;;;;;;;;5.33;4.00;;;;;24.47;46.11;101102.16;4789724;29;45443;-83
2022/07/26 12:18:23;;;;;;;;;4.00;3.00;;;;;24.68;45.85;101077.81;4786227;29;44824;-83
2022/07/26 12:24:22;;;;;;;;;0.67;0.67;;;;;24.97;44.96;101087.56;4787223;29;45358;-83
2022/07/26 12:27:07;;;;;;;;;3.00;3.00;;;;;25.03;44.02;101060.09;4821090;29;46892;-84
2022/07/26 12:30:08;;;;;;;;;2.00;2.00;;;;;25.39;43.51;101094.03;4840971;29;44745;-84
2022/07/26 12:32:39;;;;;;;;;2.00;2.00;;;;;25.30;43.61;101098.03;4792849;29;45418;-82
2022/07/26 12:35:37;;;;;;;;;1.00;1.00;;;;;25.12;43.56;101053.38;4793483;29;45377;-84
2022/07/26 12:41:53;;;;;;;;;4.00;4.00;;;;;25.61;43.70;101084.00;4833836;28;44896;-84
2022/07/26 12:44:22;;;;;;;;;4.33;3.00;;;;;25.74;43.24;101079.78;4913937;29;44912;-83
2022/07/26 12:47:11;;;;;;;;;3.33;3.00;;;;;26.01;42.73;101085.00;4917650;29;45447;-84
2022/07/26 12:49:39;;;;;;;;;2.67;2.67;;;;;26.07;42.21;101043.81;4903422;29;47150;-83
2022/07/26 12:52:13;;;;;;;;;1.67;1.67;;;;;26.54;41.66;101070.75;4917812;28;44865;-83
2022/07/26 12:55:00;;;;;;;;;3.33;3.00;;;;;26.74;40.91;101055.28;4901772;29;44785;-85
2022/07/26 12:57:45;;;;;;;;;3.00;2.00;;;;;27.14;40.08;101078.75;4901004;29;44882;-84
2022/07/26 13:00:14;;;;;;;;;2.67;2.67;;;;;27.36;39.87;101068.66;4914605;28;45524;-84